createdAt,value
2022-09-30T00:01:44.844Z,97407.38
2022-09-30T00:04:17.511Z,97412.81
2022-09-30T00:06:45.172Z,97413.41
2022-09-30T00:09:13.194Z,97404.31
2022-09-30T00:11:41.395Z,97414.03
2022-09-30T00:14:15.203Z,97419.69
2022-09-30T00:16:42.905Z,97421.81
2022-09-30T00:19:10.020Z,97418.88
2022-09-30T00:21:37.087Z,97423.66
2022-09-30T00:24:05.063Z,97430.66
2022-09-30T00:26:33.105Z,97424.69
2022-09-30T00:29:01.146Z,97425.19
2022-09-30T00:31:31.663Z,97414.00
2022-09-30T00:34:08.140Z,97418.09
2022-09-30T00:36:43.743Z,97420.72
2022-09-30T00:39:15.161Z,97419.09
2022-09-30T00:41:43.572Z,97424.56
2022-09-30T00:44:48.126Z,97419.09
2022-09-30T00:47:47.549Z,97412.44
2022-09-30T00:50:23.220Z,97415.75
2022-09-30T00:53:29.828Z,97424.91
2022-09-30T00:55:59.447Z,97429.53
2022-09-30T00:58:35.180Z,97434.91
2022-09-30T01:01:02.931Z,97424.66
2022-09-30T01:03:37.203Z,97426.53
2022-09-30T01:06:05.146Z,97422.22
2022-09-30T01:08:35.950Z,97429.53
2022-09-30T01:11:07.847Z,97427.63
2022-09-30T01:13:37.280Z,97434.38
2022-09-30T01:16:37.915Z,97430.84
2022-09-30T01:19:39.451Z,97429.78
2022-09-30T01:22:17.172Z,97428.16
2022-09-30T01:24:58.846Z,97442.19
2022-09-30T01:27:44.016Z,97437.31
2022-09-30T01:30:16.827Z,97427.09
2022-09-30T01:33:06.168Z,97423.53
2022-09-30T01:35:54.803Z,97428.69
2022-09-30T01:38:30.928Z,97441.31
2022-09-30T01:41:03.596Z,97441.56
2022-09-30T01:43:45.538Z,97443.88
2022-09-30T01:46:27.220Z,97460.47
2022-09-30T01:48:56.843Z,97472.38
2022-09-30T01:51:26.591Z,97482.41
2022-09-30T01:54:03.621Z,97493.97
2022-09-30T01:56:30.504Z,97497.13
2022-09-30T01:59:10.545Z,97504.31
2022-09-30T02:01:44.267Z,97512.13
2022-09-30T02:04:20.237Z,97518.84
2022-09-30T02:06:53.847Z,97511.25
2022-09-30T02:09:53.639Z,97518.81
2022-09-30T02:12:23.966Z,97521.97
2022-09-30T02:15:15.529Z,97518.25
2022-09-30T02:18:05.680Z,97513.47
2022-09-30T02:20:37.473Z,97533.66
2022-09-30T02:23:10.822Z,97527.53
2022-09-30T02:25:42.923Z,97515.75
2022-09-30T02:28:15.403Z,97484.00
2022-09-30T02:30:47.833Z,97473.63
2022-09-30T02:33:21.199Z,97465.34
2022-09-30T02:36:03.510Z,97459.69
2022-09-30T02:38:37.201Z,97470.22
2022-09-30T02:41:14.009Z,97471.81
2022-09-30T02:43:42.298Z,97463.19
2022-09-30T02:46:18.199Z,97475.03
2022-09-30T02:49:06.828Z,97477.16
2022-09-30T02:51:59.851Z,97485.16
2022-09-30T02:54:36.289Z,97486.94
2022-09-30T02:57:24.393Z,97503.09
2022-09-30T02:59:53.183Z,97512.97
2022-09-30T03:02:21.074Z,97509.91
2022-09-30T03:04:50.825Z,97513.63
2022-09-30T03:07:18.415Z,97524.56
2022-09-30T03:09:45.502Z,97519.78
2022-09-30T03:12:57.945Z,97528.22
2022-09-30T03:15:49.391Z,97530.94
2022-09-30T03:18:31.457Z,97513.22
2022-09-30T03:21:09.735Z,97512.97
2022-09-30T03:24:05.872Z,97519.03
2022-09-30T03:26:57.022Z,97523.34
2022-09-30T03:29:42.932Z,97530.13
2022-09-30T03:32:33.523Z,97516.84
2022-09-30T03:35:21.158Z,97528.63
2022-09-30T03:38:15.858Z,97528.09
2022-09-30T03:41:17.936Z,97543.28
2022-09-30T03:43:55.765Z,97543.84
2022-09-30T03:46:26.408Z,97540.06
2022-09-30T03:48:58.321Z,97544.44
2022-09-30T03:51:25.454Z,97546.59
2022-09-30T03:53:54.334Z,97551.47
2022-09-30T03:56:30.133Z,97543.16
2022-09-30T03:58:58.190Z,97544.91
2022-09-30T04:01:25.434Z,97555.03
2022-09-30T04:03:53.567Z,97563.38
2022-09-30T04:06:22.721Z,97560.34
2022-09-30T04:08:50.571Z,97554.66
2022-09-30T04:11:17.996Z,97556.00
2022-09-30T04:13:44.888Z,97565.59
2022-09-30T04:16:11.841Z,97568.28
2022-09-30T04:18:39.584Z,97575.84
2022-09-30T04:21:11.852Z,97570.78
2022-09-30T04:23:40.615Z,97571.88
2022-09-30T04:26:11.118Z,97578.63
2022-09-30T04:28:38.037Z,97579.47
2022-09-30T04:31:06.645Z,97585.06
2022-09-30T04:33:33.866Z,97574.69
2022-09-30T04:36:01.574Z,97568.59
2022-09-30T04:38:29.319Z,97552.53
2022-09-30T04:40:56.423Z,97549.13
2022-09-30T04:43:24.571Z,97547.66
2022-09-30T04:45:52.893Z,97550.66
2022-09-30T04:48:21.377Z,97552.06
2022-09-30T04:50:49.229Z,97552.38
2022-09-30T04:53:17.111Z,97557.53
2022-09-30T04:55:45.333Z,97565.34
2022-09-30T04:58:12.912Z,97573.72
2022-09-30T05:00:40.167Z,97570.47
2022-09-30T05:03:07.301Z,97561.59
2022-09-30T05:05:34.752Z,97552.09
2022-09-30T05:08:05.426Z,97556.66
2022-09-30T05:10:32.779Z,97552.75
2022-09-30T05:12:59.629Z,97544.78
2022-09-30T05:15:27.268Z,97550.00
2022-09-30T05:17:54.267Z,97561.47
2022-09-30T05:20:21.697Z,97563.09
2022-09-30T05:22:53.825Z,97550.97
2022-09-30T05:25:20.746Z,97558.81
2022-09-30T05:27:51.455Z,97562.75
2022-09-30T05:30:18.478Z,97571.84
2022-09-30T05:32:46.123Z,97561.31
2022-09-30T05:35:13.105Z,97561.66
2022-09-30T05:37:40.185Z,97565.63
2022-09-30T05:40:08.405Z,97557.84
2022-09-30T05:42:37.046Z,97560.81
2022-09-30T05:45:07.312Z,97564.59
2022-09-30T05:47:34.701Z,97556.47
2022-09-30T05:50:01.628Z,97567.56
2022-09-30T05:52:29.718Z,97566.69
2022-09-30T05:54:59.172Z,97576.75
2022-09-30T05:57:26.092Z,97570.63
2022-09-30T05:59:52.940Z,97572.84
2022-09-30T06:02:19.975Z,97576.16
2022-09-30T06:04:46.944Z,97575.75
2022-09-30T06:07:14.045Z,97583.56
2022-09-30T06:09:41.075Z,97585.56
2022-09-30T06:12:08.377Z,97586.88
2022-09-30T06:14:35.325Z,97586.19
2022-09-30T06:17:02.253Z,97597.47
2022-09-30T06:19:30.474Z,97600.59
2022-09-30T06:21:58.440Z,97602.59
2022-09-30T06:24:25.611Z,97596.53
2022-09-30T06:26:52.490Z,97603.06
2022-09-30T06:29:19.936Z,97610.41
2022-09-30T06:31:46.970Z,97610.66
2022-09-30T06:34:13.959Z,97622.22
2022-09-30T06:36:41.029Z,97624.78
2022-09-30T06:39:11.535Z,97623.53
2022-09-30T06:41:43.641Z,97625.78
2022-09-30T06:44:13.112Z,97621.19
2022-09-30T06:46:51.655Z,97632.66
2022-09-30T06:49:19.803Z,97641.31
2022-09-30T06:51:46.823Z,97642.97
2022-09-30T06:54:13.719Z,97648.09
2022-09-30T06:56:40.647Z,97658.34
2022-09-30T06:59:07.541Z,97661.78
2022-09-30T07:01:34.525Z,97664.88
2022-09-30T07:04:08.037Z,97660.06
2022-09-30T07:06:35.243Z,97672.06
2022-09-30T07:09:02.280Z,97675.69
2022-09-30T07:11:29.158Z,97676.75
2022-09-30T07:13:56.035Z,97672.47
2022-09-30T07:16:25.867Z,97676.81
2022-09-30T07:18:54.120Z,97682.13
2022-09-30T07:21:21.002Z,97668.50
2022-09-30T07:23:48.254Z,97671.63
2022-09-30T07:26:20.666Z,97676.19
2022-09-30T07:28:47.829Z,97676.03
2022-09-30T07:31:32.352Z,97671.06
2022-09-30T07:33:59.946Z,97664.72
2022-09-30T07:36:33.066Z,97670.34
2022-09-30T07:39:06.152Z,97672.16
2022-09-30T07:41:36.686Z,97675.03
2022-09-30T07:44:05.673Z,97666.81
2022-09-30T07:46:34.906Z,97665.84
2022-09-30T07:49:04.209Z,97677.13
2022-09-30T07:51:35.517Z,97671.88
2022-09-30T07:54:06.220Z,97675.75
2022-09-30T07:56:57.872Z,97681.22
2022-09-30T07:59:22.342Z,97681.69
2022-09-30T08:01:50.957Z,97683.97
2022-09-30T08:04:19.968Z,97683.03
2022-09-30T08:06:50.018Z,97685.50
2022-09-30T08:09:19.344Z,97686.63
2022-09-30T08:11:46.403Z,97685.16
2022-09-30T08:14:18.805Z,97679.63
2022-09-30T08:16:45.805Z,97679.28
2022-09-30T08:19:18.210Z,97684.44
2022-09-30T08:21:45.776Z,97680.72
2022-09-30T08:24:13.766Z,97687.97
2022-09-30T08:26:41.165Z,97694.38
2022-09-30T08:29:08.462Z,97692.97
2022-09-30T08:31:35.565Z,97688.28
2022-09-30T08:34:03.314Z,97690.53
2022-09-30T08:36:30.885Z,97690.69
2022-09-30T08:38:58.294Z,97689.75
2022-09-30T08:41:27.869Z,97690.56
2022-09-30T08:44:01.137Z,97708.53
2022-09-30T08:46:58.431Z,97704.53
2022-09-30T08:49:34.809Z,97713.38
2022-09-30T08:52:03.474Z,97720.94
2022-09-30T08:54:39.864Z,97717.22
2022-09-30T08:57:07.240Z,97718.66
2022-09-30T08:59:48.223Z,97719.66
2022-09-30T09:02:33.237Z,97724.00
2022-09-30T09:05:06.947Z,97718.31
2022-09-30T09:07:46.332Z,97727.41
2022-09-30T09:10:24.281Z,97718.34
2022-09-30T09:12:54.219Z,97727.66
2022-09-30T09:15:43.582Z,97732.47
2022-09-30T09:18:38.515Z,97733.44
2022-09-30T09:21:16.686Z,97730.69
2022-09-30T09:23:44.621Z,97728.22
2022-09-30T09:26:14.460Z,97728.53
2022-09-30T09:29:25.989Z,97730.59
2022-09-30T09:31:55.186Z,97729.78
2022-09-30T09:34:25.664Z,97732.97
2022-09-30T09:37:13.422Z,97720.84
2022-09-30T09:40:12.196Z,97734.06
2022-09-30T10:17:35.273Z,97719.75
2022-09-30T10:20:07.827Z,97719.63
2022-09-30T10:22:36.820Z,97718.06
2022-09-30T10:25:24.928Z,97714.34
2022-09-30T10:27:53.821Z,97732.06
2022-09-30T10:30:53.959Z,97716.56
2022-09-30T10:33:24.950Z,97703.41
2022-09-30T10:36:07.689Z,97711.97
2022-09-30T10:38:36.157Z,97711.72
2022-09-30T10:41:05.399Z,97722.34
2022-09-30T10:43:42.300Z,97711.00
2022-09-30T10:46:27.271Z,97701.84
2022-09-30T10:48:56.857Z,97702.09
2022-09-30T10:51:35.039Z,97710.41
2022-09-30T10:54:03.152Z,97704.47
2022-09-30T10:56:39.062Z,97703.16
2022-09-30T10:59:31.394Z,97689.00
2022-09-30T11:02:07.258Z,97694.13
2022-09-30T11:04:43.269Z,97693.59
2022-09-30T11:07:49.334Z,97686.06
2022-09-30T11:10:34.304Z,97695.81
2022-09-30T11:13:23.776Z,97690.50
2022-09-30T11:16:03.501Z,97686.09
2022-09-30T11:18:42.518Z,97688.06
2022-09-30T11:22:01.722Z,97689.88
2022-09-30T11:24:57.390Z,97687.47
2022-09-30T11:27:46.409Z,97698.09
2022-09-30T11:30:16.271Z,97691.06
2022-09-30T11:33:01.061Z,97696.72
2022-09-30T11:35:43.169Z,97701.03
2022-09-30T11:38:31.794Z,97702.19
2022-09-30T11:41:09.612Z,97706.19
2022-09-30T11:43:45.672Z,97714.53
2022-09-30T11:46:18.598Z,97703.25
2022-09-30T11:48:53.077Z,97709.78
2022-09-30T11:51:42.614Z,97713.13
2022-09-30T11:54:33.245Z,97708.31
2022-09-30T11:57:29.345Z,97715.47
2022-09-30T12:00:02.061Z,97720.28
2022-09-30T12:02:46.783Z,97709.34
2022-09-30T12:05:38.434Z,97710.75
2022-09-30T12:08:15.737Z,97715.16
2022-09-30T12:10:48.514Z,97725.97
2022-09-30T12:13:23.235Z,97724.56
2022-09-30T12:15:52.884Z,97725.63
2022-09-30T12:18:42.007Z,97720.56
2022-09-30T12:21:33.162Z,97721.28
2022-09-30T12:24:11.544Z,97732.06
2022-09-30T12:26:40.891Z,97722.41
2022-09-30T12:29:55.848Z,97729.31
2022-09-30T12:32:59.775Z,97727.78
2022-09-30T12:35:29.763Z,97733.78
2022-09-30T12:38:17.813Z,97738.44
2022-09-30T12:41:05.984Z,97740.91
2022-09-30T12:43:51.751Z,97732.72
2022-09-30T12:46:39.886Z,97733.00
2022-09-30T12:49:14.955Z,97733.31
2022-09-30T12:51:44.183Z,97735.63
2022-09-30T12:54:39.613Z,97736.28
2022-09-30T12:57:09.838Z,97736.28
2022-09-30T12:59:47.310Z,97731.13
2022-09-30T13:02:31.820Z,97732.09
2022-09-30T13:05:26.481Z,97735.16
2022-09-30T13:08:05.569Z,97736.28
2022-09-30T13:10:44.204Z,97734.84
2022-09-30T13:13:11.284Z,97736.78
2022-09-30T13:15:41.372Z,97736.13
2022-09-30T13:18:20.362Z,97749.34
2022-09-30T13:20:56.801Z,97751.28
2022-09-30T13:23:57.198Z,97751.75
2022-09-30T13:26:27.517Z,97754.50
2022-09-30T13:29:17.672Z,97740.22
2022-09-30T13:31:50.288Z,97744.22
2022-09-30T13:34:31.293Z,97740.34
2022-09-30T13:36:59.528Z,97743.41
2022-09-30T13:39:35.524Z,97747.28
2022-09-30T13:42:17.820Z,97738.44
2022-09-30T13:45:11.076Z,97729.09
2022-09-30T13:47:44.393Z,97737.81
2022-09-30T13:50:32.644Z,97748.59
2022-09-30T13:53:06.003Z,97747.81
2022-09-30T13:55:41.667Z,97759.22
2022-09-30T13:58:20.227Z,97754.72
2022-09-30T14:00:54.614Z,97763.41
2022-09-30T14:03:59.788Z,97753.25
2022-09-30T14:07:00.440Z,97756.44
2022-09-30T14:09:30.081Z,97752.25
2022-09-30T14:12:24.414Z,97766.06
2022-09-30T14:15:02.437Z,97766.03
2022-09-30T14:17:44.250Z,97759.94
2022-09-30T14:20:38.179Z,97767.31
2022-09-30T14:23:13.623Z,97768.38
2022-09-30T14:25:50.394Z,97766.06
2022-09-30T14:28:42.269Z,97774.56
2022-09-30T14:31:15.426Z,97761.38
2022-09-30T14:33:47.619Z,97764.88
2022-09-30T14:39:02.874Z,97765.28
2022-09-30T14:41:31.496Z,97769.63
2022-09-30T14:44:08.251Z,97775.03
2022-09-30T14:46:41.174Z,97776.69
2022-09-30T14:49:14.326Z,97781.22
2022-09-30T14:51:49.175Z,97775.66
2022-09-30T14:54:30.310Z,97770.66
2022-09-30T14:56:59.292Z,97771.63
2022-09-30T14:59:34.788Z,97787.13
2022-09-30T15:02:12.865Z,97789.16
2022-09-30T15:04:48.001Z,97774.16
2022-09-30T15:07:15.270Z,97782.28
2022-09-30T15:09:46.195Z,97787.94
2022-09-30T15:12:20.165Z,97791.78
2022-09-30T15:14:56.036Z,97800.38
2022-09-30T15:17:40.785Z,97805.72
2022-09-30T15:20:30.263Z,97806.75
2022-09-30T15:23:01.169Z,97812.22
2022-09-30T15:25:28.674Z,97808.69
2022-09-30T15:27:55.604Z,97809.38
2022-09-30T15:30:33.122Z,97815.97
2022-09-30T15:33:03.430Z,97824.41
2022-09-30T15:35:31.617Z,97821.50
2022-09-30T15:38:15.792Z,97823.31
2022-09-30T15:40:53.325Z,97827.66
2022-09-30T15:43:40.038Z,97832.19
2022-09-30T15:46:29.566Z,97832.28
2022-09-30T15:48:59.543Z,97834.91
2022-09-30T15:51:37.210Z,97842.28
2022-09-30T15:54:27.650Z,97851.19
2022-09-30T15:56:54.897Z,97846.00
2022-09-30T15:59:22.807Z,97853.84
2022-09-30T16:01:59.114Z,97853.53
2022-09-30T16:04:26.500Z,97857.75
2022-09-30T16:06:58.559Z,97859.47
2022-09-30T16:09:34.995Z,97861.34
2022-09-30T16:12:05.494Z,97868.78
2022-09-30T16:14:43.935Z,97860.72
2022-09-30T16:17:23.226Z,97878.66
2022-09-30T16:19:52.604Z,97879.56
2022-09-30T16:22:40.789Z,97885.00
2022-09-30T16:25:11.159Z,97890.50
2022-09-30T16:27:38.804Z,97891.81
2022-09-30T16:30:07.183Z,97890.06
2022-09-30T16:32:41.823Z,97895.28
2022-09-30T16:35:18.004Z,97900.34
2022-09-30T16:37:44.928Z,97896.38
2022-09-30T16:40:26.454Z,97895.56
2022-09-30T16:42:58.827Z,97896.91
2022-09-30T16:45:28.092Z,97904.81
2022-09-30T16:47:57.094Z,97898.38
2022-09-30T16:50:23.967Z,97904.28
2022-09-30T16:52:50.955Z,97895.38
2022-09-30T16:55:17.980Z,97898.19
2022-09-30T16:57:44.862Z,97901.19
2022-09-30T17:00:15.703Z,97909.69
2022-09-30T17:02:42.586Z,97905.69
2022-09-30T17:05:14.371Z,97913.22
2022-09-30T17:07:43.484Z,97917.59
2022-09-30T17:10:18.469Z,97910.34
2022-09-30T17:12:45.483Z,97916.31
2022-09-30T17:15:12.685Z,97918.22
2022-09-30T17:17:39.620Z,97915.22
2022-09-30T17:20:07.198Z,97915.94
2022-09-30T17:22:34.065Z,97915.34
2022-09-30T17:25:00.957Z,97922.72
2022-09-30T17:27:27.872Z,97926.22
2022-09-30T17:29:55.573Z,97925.78
2022-09-30T17:32:22.679Z,97929.00
2022-09-30T17:34:49.585Z,97931.31
2022-09-30T17:37:16.483Z,97940.84
2022-09-30T17:39:43.340Z,97931.38
2022-09-30T17:42:32.871Z,97946.13
2022-09-30T17:45:00.473Z,97945.09
2022-09-30T17:47:27.733Z,97940.69
2022-09-30T17:49:54.755Z,97941.00
2022-09-30T17:52:21.686Z,97939.97
2022-09-30T17:54:52.238Z,97949.94
2022-09-30T17:57:20.569Z,97951.03
2022-09-30T17:59:47.492Z,97948.31
2022-09-30T18:02:17.550Z,97945.25
2022-09-30T18:04:45.070Z,97956.41
2022-09-30T18:07:13.784Z,97954.19
2022-09-30T18:09:40.679Z,97953.16
2022-09-30T18:12:07.813Z,97955.88
2022-09-30T18:14:38.254Z,97955.31
2022-09-30T18:17:06.409Z,97965.59
2022-09-30T18:19:33.586Z,97963.75
2022-09-30T18:22:00.447Z,97966.34
2022-09-30T18:24:45.674Z,97964.94
2022-09-30T18:27:12.831Z,97970.16
2022-09-30T18:29:40.706Z,97973.97
2022-09-30T18:32:09.086Z,97969.88
2022-09-30T18:34:36.111Z,97973.38
2022-09-30T18:37:06.713Z,97979.63
2022-09-30T18:39:38.298Z,97982.91
2022-09-30T18:42:05.499Z,97981.84
2022-09-30T18:44:37.760Z,97975.81
2022-09-30T18:47:06.084Z,97981.00
2022-09-30T18:49:33.003Z,97975.56
2022-09-30T18:52:00.140Z,97982.78
2022-09-30T18:54:27.080Z,97986.59
2022-09-30T18:56:54.171Z,97993.06
2022-09-30T18:59:23.373Z,97989.81
2022-09-30T19:01:51.258Z,97989.31
2022-09-30T19:04:18.227Z,97987.97
2022-09-30T19:06:47.709Z,97989.25
2022-09-30T19:09:16.506Z,97985.72
2022-09-30T19:11:44.960Z,97990.59
2022-09-30T19:14:15.703Z,97990.28
2022-09-30T19:16:43.555Z,97989.66
2022-09-30T19:19:11.082Z,97998.50
2022-09-30T19:21:39.424Z,98007.22
2022-09-30T19:24:08.865Z,98013.75
2022-09-30T19:26:38.337Z,98021.56
2022-09-30T19:29:07.342Z,98017.81
2022-09-30T19:31:36.661Z,98019.88
2022-09-30T19:34:04.212Z,98035.66
2022-09-30T19:36:42.060Z,98040.41
2022-09-30T19:39:12.499Z,98047.66
2022-09-30T19:41:39.947Z,98044.84
2022-09-30T19:44:06.911Z,98052.31
2022-09-30T19:46:33.899Z,98050.72
2022-09-30T19:49:00.829Z,98043.91
2022-09-30T19:51:31.349Z,98048.16
2022-09-30T19:54:05.966Z,98037.97
2022-09-30T19:56:34.892Z,98024.56
2022-09-30T19:59:01.931Z,98029.69
2022-09-30T20:01:30.756Z,98029.13
2022-09-30T20:04:04.836Z,98033.19
2022-09-30T20:06:33.620Z,98030.50
2022-09-30T20:09:03.408Z,98023.47
2022-09-30T20:11:33.726Z,98025.88
2022-09-30T20:14:38.058Z,98030.13
2022-09-30T20:17:05.105Z,98040.34
2022-09-30T20:19:32.068Z,98039.97
2022-09-30T20:21:59.167Z,98043.69
2022-09-30T20:24:26.183Z,98047.22
2022-09-30T20:26:53.079Z,98042.75
2022-09-30T20:29:20.673Z,98038.47
2022-09-30T20:31:48.357Z,98036.34
2022-09-30T20:34:17.434Z,98038.25
2022-09-30T20:36:45.075Z,98032.84
2022-09-30T20:39:12.406Z,98030.75
2022-09-30T20:41:40.428Z,98033.19
2022-09-30T20:44:11.280Z,98029.19
2022-09-30T20:46:39.454Z,98037.53
2022-09-30T20:49:06.523Z,98052.16
2022-09-30T20:51:33.874Z,98052.41
2022-09-30T20:54:01.273Z,98044.81
2022-09-30T20:56:39.308Z,98047.00
2022-09-30T20:59:17.329Z,98061.59
2022-09-30T21:01:44.394Z,98067.53
2022-09-30T21:04:11.511Z,98069.19
2022-09-30T21:06:38.418Z,98072.16
2022-09-30T21:09:05.699Z,98074.06
2022-09-30T21:11:33.656Z,98074.59
2022-09-30T21:14:01.107Z,98057.81
2022-09-30T21:16:29.704Z,98064.31
2022-09-30T21:18:57.150Z,98050.69
2022-09-30T21:21:25.865Z,98061.16
2022-09-30T21:23:55.626Z,98065.75
2022-09-30T21:26:22.753Z,98059.78
2022-09-30T21:28:51.082Z,98059.00
2022-09-30T21:31:22.154Z,98062.78
2022-09-30T21:33:56.831Z,98067.44
2022-09-30T21:36:24.824Z,98067.97
2022-09-30T21:38:52.388Z,98066.41
2022-09-30T21:41:19.901Z,98067.78
2022-09-30T21:43:47.308Z,98073.44
2022-09-30T21:46:15.995Z,98080.78
2022-09-30T21:48:43.264Z,98079.16
2022-09-30T21:51:10.837Z,98084.06
2022-09-30T21:53:39.041Z,98088.38
2022-09-30T21:56:07.065Z,98078.91
2022-09-30T21:58:34.324Z,98086.75
2022-09-30T22:01:04.259Z,98089.47
2022-09-30T22:03:38.037Z,98096.22
2022-09-30T22:06:09.347Z,98099.47
2022-09-30T22:08:40.542Z,98097.81
2022-09-30T22:11:14.713Z,98097.84
2022-09-30T22:13:46.619Z,98091.63
2022-09-30T22:16:15.403Z,98096.22
2022-09-30T22:18:43.073Z,98100.28
2022-09-30T22:21:13.822Z,98101.66
2022-09-30T22:23:41.276Z,98103.25
2022-09-30T22:26:12.369Z,98109.75
2022-09-30T22:28:39.908Z,98111.59
2022-09-30T22:31:21.725Z,98109.44
2022-09-30T22:34:09.006Z,98108.06
2022-09-30T22:36:55.043Z,98112.34
2022-09-30T22:39:23.057Z,98104.44
2022-09-30T22:41:55.988Z,98112.28
2022-09-30T22:44:25.682Z,98108.13
2022-09-30T22:46:53.505Z,98108.34
2022-09-30T22:49:20.992Z,98106.66
2022-09-30T22:51:52.371Z,98117.94
2022-09-30T22:54:19.726Z,98113.84
2022-09-30T22:56:46.653Z,98112.22
2022-09-30T22:59:13.523Z,98121.94
2022-09-30T23:01:40.556Z,98116.56
2022-09-30T23:04:08.171Z,98124.44
2022-09-30T23:06:36.146Z,98129.31
2022-09-30T23:09:05.711Z,98118.88
2022-09-30T23:11:33.276Z,98111.19
2022-09-30T23:14:01.985Z,98112.19
2022-09-30T23:16:29.451Z,98117.91
2022-09-30T23:18:56.692Z,98118.69
2022-09-30T23:21:23.717Z,98118.78
2022-09-30T23:23:50.697Z,98122.41
2022-09-30T23:26:20.850Z,98126.50
2022-09-30T23:28:47.751Z,98134.81
2022-09-30T23:31:16.303Z,98130.56
2022-09-30T23:33:49.268Z,98127.50
2022-09-30T23:36:19.139Z,98140.06
2022-09-30T23:38:47.017Z,98140.84
2022-09-30T23:41:14.189Z,98143.19
2022-09-30T23:43:45.871Z,98144.81
2022-09-30T23:46:12.882Z,98145.19
2022-09-30T23:48:40.604Z,98148.97
2022-09-30T23:51:07.778Z,98148.50
2022-09-30T23:53:35.195Z,98147.81
2022-09-30T23:56:05.747Z,98151.56
2022-09-30T23:58:33.970Z,98146.03
